• Join FlightAware (Why Join?)
  • Login
  • US Flag 
04:29AM EDT


 

Airport Tracker/Info


-or-


 

Live Flight TrackerFlight Track Log ✈ N860H ✈ 27-Jun-2013 ✈ KCGF - KOSU

Flight Track Log - Related Links

Times and Time Zones

All times are in EDT time to prevent confusion due to time zone crossing. See the N860H flight status page for this flight to view local times or setup timezone preferences in your user account.

Time Position Orientation Groundspeed Altitude Reporting Facility
EDT Latitude Longitude Course Direction KTS MPH feet Rate Location/Type
03:30PM 41.5750 -81.4686 89° East 148 170 1,700  Level Cleveland Center
03:31PM 41.5756 -81.4214 89° East 172 198 3,100 1,260 Climbing Cleveland Center
03:32PM 41.5192 -81.4094 171° South 185 213 4,400 840 Climbing Cleveland Center
03:33PM 41.4672 -81.3978 170° South 190 219 5,000 300 Climbing Cleveland Center
03:34PM 41.4131 -81.3889 173° South 193 222 5,100 480 Climbing Cleveland Center
03:35PM 41.3794 -81.4383 228° Southwest 213 245 6,000 1,140 Climbing Cleveland Center
03:36PM 41.3642 -81.5100 254° West 201 231 7,400 1,020 Climbing Cleveland Center
03:37PM 41.3553 -81.5761 260° West 196 226 8,000 540 Climbing Cleveland Center
03:38PM 41.3400 -81.6561 256° West 229 264 8,500 900 Climbing Cleveland Center
03:39PM 41.3289 -81.7333 259° West 208 239 9,900 1,140 Climbing Cleveland Center
03:40PM 41.2803 -81.7822 217° Southwest 220 253 10,900 840 Climbing Cleveland Center
03:41PM 41.2256 -81.8364 217° Southwest 237 273 11,700 540 Climbing Cleveland Center
03:42PM 41.1667 -81.8822 210° Southwest 243 280 12,100 120 Climbing Cleveland Center
03:44PM 41.0953 -81.9333 208° Southwest 269 310 12,000 -60 Descending Cleveland Center
03:45PM 41.0342 -81.9814 211° Southwest 269 310 12,000  Level Cleveland Center
03:46PM 40.9689 -82.0322 210° Southwest 269 310 12,000  Level Cleveland Center
03:47PM 40.9100 -82.0778 210° Southwest 264 304 12,000 -60 Level Cleveland Center
03:48PM 40.8550 -82.1258 213° Southwest 264 304 11,900  Descending Cleveland Center
03:48PM 40.8069 -82.1667 213° Southwest 258 297 12,000  Climbing Indianapolis Center
03:49PM 40.7481 -82.2197 214° Southwest 254 292 12,000  Level Indianapolis Center
03:50PM 40.6928 -82.2739 217° Southwest 246 283 12,000  Level Indianapolis Center
03:51PM 40.6414 -82.3231 216° Southwest 227 261 12,000  Level Indianapolis Center
03:52PM 40.5933 -82.3706 217° Southwest 216 249 12,000  Level Indianapolis Center
03:54PM 40.5439 -82.4203 217° Southwest 220 253 12,000  Level Indianapolis Center
03:54PM 40.4936 -82.4775 221° Southwest 227 261 12,000 -480 Level Indianapolis Center
03:56PM 40.4422 -82.5447 225° Southwest 234 269 11,100 -1,080 Descending Indianapolis Center
03:57PM 40.3936 -82.6003 221° Southwest 229 264 9,700 -1,560 Descending Indianapolis Center
03:58PM 40.3464 -82.6600 224° Southwest 234 269 7,900 -1,500 Descending Indianapolis Center
03:59PM 40.3317 -82.7358 256° West 212 244 6,700 -1,200 Descending Indianapolis Center
04:00PM 40.3183 -82.8092 257° West 206 237 5,500 -1,200 Descending Indianapolis Center
04:02PM 40.2017 -82.8433 193° South 215 247 3,300 -840 Descending Indianapolis Center
04:03PM 40.1397 -82.8553 188° South 208 239 3,000 -180 Descending Indianapolis Center
04:04PM 40.1031 -82.8850 212° Southwest 167 192 3,000 -120 Level Indianapolis Center
04:05PM 40.0817 -82.9336 240° Southwest 140 161 2,800 -540 Descending Indianapolis Center
04:06PM 40.0789 -82.9850 266° West 131 151 2,000 -720 Descending Indianapolis Center
04:07PM 40.0792 -83.0289 270° West 117 135 1,400 -360 Descending Indianapolis Center
04:08PM 40.0772 -83.0792 267° West 130 150 1,200 -180 Descending Indianapolis Center
04:10PM 40.0798 -83.0732 138° Southeast  Level Estimated